sensor_id;sensor_type;location;lat;lon;timestamp;pressure;altitude;pressure_sealevel;temperature;humidity
61394;BME280;48555;50.952;-0.120;2023-03-25T00:00:42;99616.38;;;12.14;71.27
61394;BME280;48555;50.952;-0.120;2023-03-25T00:03:08;99613.09;;;12.12;71.22
61394;BME280;48555;50.952;-0.120;2023-03-25T00:05:38;99613.69;;;12.06;71.21
61394;BME280;48555;50.952;-0.120;2023-03-25T00:08:03;99614.22;;;12.10;71.40
61394;BME280;48555;50.952;-0.120;2023-03-25T00:10:29;99620.72;;;12.05;71.52
61394;BME280;48555;50.952;-0.120;2023-03-25T00:12:55;99629.56;;;12.04;71.66
61394;BME280;48555;50.952;-0.120;2023-03-25T00:15:20;99620.88;;;12.04;71.48
61394;BME280;48555;50.952;-0.120;2023-03-25T00:17:46;99626.81;;;12.06;71.21
61394;BME280;48555;50.952;-0.120;2023-03-25T00:20:11;99630.53;;;12.03;71.27
61394;BME280;48555;50.952;-0.120;2023-03-25T00:22:38;99631.94;;;11.98;71.43
61394;BME280;48555;50.952;-0.120;2023-03-25T00:25:10;99632.91;;;11.97;71.47
61394;BME280;48555;50.952;-0.120;2023-03-25T00:27:37;99638.59;;;11.92;71.72
61394;BME280;48555;50.952;-0.120;2023-03-25T00:30:03;99635.69;;;11.95;71.66
61394;BME280;48555;50.952;-0.120;2023-03-25T00:32:28;99632.94;;;11.87;72.01
61394;BME280;48555;50.952;-0.120;2023-03-25T00:34:54;99632.91;;;11.97;71.91
61394;BME280;48555;50.952;-0.120;2023-03-25T00:37:20;99643.06;;;12.10;71.76
61394;BME280;48555;50.952;-0.120;2023-03-25T00:39:46;99648.53;;;12.16;71.48
61394;BME280;48555;50.952;-0.120;2023-03-25T00:42:15;99649.22;;;12.18;71.17
61394;BME280;48555;50.952;-0.120;2023-03-25T00:44:41;99655.97;;;12.21;71.04
61394;BME280;48555;50.952;-0.120;2023-03-25T00:47:06;99649.03;;;12.20;70.90
61394;BME280;48555;50.952;-0.120;2023-03-25T00:49:31;99653.34;;;12.21;70.72
61394;BME280;48555;50.952;-0.120;2023-03-25T00:51:57;99632.19;;;12.22;70.72
61394;BME280;48555;50.952;-0.120;2023-03-25T00:54:22;99654.00;;;12.23;70.39
61394;BME280;48555;50.952;-0.120;2023-03-25T00:56:49;99645.00;;;12.25;70.32
61394;BME280;48555;50.952;-0.120;2023-03-25T00:59:15;99652.34;;;12.22;70.26
61394;BME280;48555;50.952;-0.120;2023-03-25T01:01:40;99657.59;;;12.22;70.46
61394;BME280;48555;50.952;-0.120;2023-03-25T01:04:06;99660.94;;;12.14;70.46
61394;BME280;48555;50.952;-0.120;2023-03-25T01:06:38;99654.47;;;12.09;70.53
61394;BME280;48555;50.952;-0.120;2023-03-25T01:09:13;99660.19;;;12.04;70.71
61394;BME280;48555;50.952;-0.120;2023-03-25T01:11:40;99663.50;;;12.06;70.41
61394;BME280;48555;50.952;-0.120;2023-03-25T01:14:10;99647.06;;;12.04;70.39
61394;BME280;48555;50.952;-0.120;2023-03-25T01:16:37;99646.25;;;12.03;70.18
61394;BME280;48555;50.952;-0.120;2023-03-25T01:19:03;99648.06;;;12.03;70.29
61394;BME280;48555;50.952;-0.120;2023-03-25T01:21:28;99649.47;;;11.97;70.39
61394;BME280;48555;50.952;-0.120;2023-03-25T01:23:54;99657.84;;;12.01;70.24
61394;BME280;48555;50.952;-0.120;2023-03-25T01:26:19;99664.19;;;11.98;70.06
61394;BME280;48555;50.952;-0.120;2023-03-25T01:28:44;99656.63;;;11.95;70.32
61394;BME280;48555;50.952;-0.120;2023-03-25T01:31:12;99648.25;;;11.92;70.16
61394;BME280;48555;50.952;-0.120;2023-03-25T01:33:38;99658.28;;;11.96;70.14
61394;BME280;48555;50.952;-0.120;2023-03-25T01:36:05;99657.63;;;11.94;70.31
61394;BME280;48555;50.952;-0.120;2023-03-25T01:38:35;99657.75;;;11.93;70.50
61394;BME280;48555;50.952;-0.120;2023-03-25T01:41:01;99655.00;;;11.94;70.59
61394;BME280;48555;50.952;-0.120;2023-03-25T01:43:28;99648.78;;;11.95;70.45
61394;BME280;48555;50.952;-0.120;2023-03-25T01:45:54;99645.19;;;11.96;70.81
61394;BME280;48555;50.952;-0.120;2023-03-25T01:48:33;99645.47;;;11.93;70.40
61394;BME280;48555;50.952;-0.120;2023-03-25T01:51:06;99640.00;;;11.87;70.32
61394;BME280;48555;50.952;-0.120;2023-03-25T01:53:34;99636.66;;;11.85;70.66
61394;BME280;48555;50.952;-0.120;2023-03-25T01:56:02;99637.41;;;11.77;70.46
61394;BME280;48555;50.952;-0.120;2023-03-25T01:58:31;99625.66;;;11.81;70.33
61394;BME280;48555;50.952;-0.120;2023-03-25T02:00:57;99625.81;;;11.79;70.27
61394;BME280;48555;50.952;-0.120;2023-03-25T02:03:25;99632.97;;;11.77;70.24
61394;BME280;48555;50.952;-0.120;2023-03-25T02:06:00;99619.47;;;11.72;70.32
61394;BME280;48555;50.952;-0.120;2023-03-25T02:08:29;99618.13;;;11.68;70.17
61394;BME280;48555;50.952;-0.120;2023-03-25T02:10:57;99624.25;;;11.59;70.31
61394;BME280;48555;50.952;-0.120;2023-03-25T02:13:23;99637.56;;;11.66;70.22
61394;BME280;48555;50.952;-0.120;2023-03-25T02:18:55;99645.56;;;11.64;70.19
61394;BME280;48555;50.952;-0.120;2023-03-25T02:33:22;99641.50;;;11.42;70.50
61394;BME280;48555;50.952;-0.120;2023-03-25T02:39:03;99638.34;;;11.39;70.40
61394;BME280;48555;50.952;-0.120;2023-03-25T02:44:13;99644.41;;;11.29;70.90
61394;BME280;48555;50.952;-0.120;2023-03-25T02:46:46;99632.56;;;11.35;70.38
61394;BME280;48555;50.952;-0.120;2023-03-25T02:49:20;99645.50;;;11.36;70.18
61394;BME280;48555;50.952;-0.120;2023-03-25T02:51:54;99637.69;;;11.27;69.82
61394;BME280;48555;50.952;-0.120;2023-03-25T02:54:23;99635.91;;;11.27;69.89
61394;BME280;48555;50.952;-0.120;2023-03-25T02:56:50;99621.88;;;11.19;69.84
61394;BME280;48555;50.952;-0.120;2023-03-25T02:59:22;99640.97;;;11.29;69.69
61394;BME280;48555;50.952;-0.120;2023-03-25T03:01:48;99647.19;;;11.28;69.31
61394;BME280;48555;50.952;-0.120;2023-03-25T03:04:14;99645.56;;;11.27;69.24
61394;BME280;48555;50.952;-0.120;2023-03-25T03:06:41;99642.78;;;11.28;69.26
61394;BME280;48555;50.952;-0.120;2023-03-25T03:17:24;99663.47;;;11.12;69.18
61394;BME280;48555;50.952;-0.120;2023-03-25T03:19:55;99666.09;;;11.12;69.17
61394;BME280;48555;50.952;-0.120;2023-03-25T03:27:50;99666.63;;;11.16;69.59
61394;BME280;48555;50.952;-0.120;2023-03-25T03:33:00;99665.38;;;11.20;69.92
61394;BME280;48555;50.952;-0.120;2023-03-25T03:35:31;99668.72;;;11.12;69.59
61394;BME280;48555;50.952;-0.120;2023-03-25T03:38:00;99669.38;;;11.14;69.52
61394;BME280;48555;50.952;-0.120;2023-03-25T03:40:30;99671.16;;;11.13;69.71
61394;BME280;48555;50.952;-0.120;2023-03-25T03:43:02;99684.69;;;11.09;69.59
61394;BME280;48555;50.952;-0.120;2023-03-25T03:45:35;99695.00;;;11.10;69.66
61394;BME280;48555;50.952;-0.120;2023-03-25T03:48:09;99698.44;;;11.11;69.83
61394;BME280;48555;50.952;-0.120;2023-03-25T03:50:46;99699.13;;;11.13;69.69
61394;BME280;48555;50.952;-0.120;2023-03-25T03:53:23;99694.03;;;11.02;70.09
61394;BME280;48555;50.952;-0.120;2023-03-25T03:55:58;99696.91;;;11.08;70.59
61394;BME280;48555;50.952;-0.120;2023-03-25T03:58:34;99694.88;;;11.12;70.35
61394;BME280;48555;50.952;-0.120;2023-03-25T04:01:09;99699.13;;;11.13;70.39
61394;BME280;48555;50.952;-0.120;2023-03-25T04:03:49;99702.16;;;11.18;70.24
61394;BME280;48555;50.952;-0.120;2023-03-25T04:06:22;99697.50;;;11.12;70.50
61394;BME280;48555;50.952;-0.120;2023-03-25T04:08:54;99705.88;;;11.16;70.54
61394;BME280;48555;50.952;-0.120;2023-03-25T04:11:29;99698.28;;;11.03;70.86
61394;BME280;48555;50.952;-0.120;2023-03-25T04:13:58;99712.78;;;11.07;70.84
61394;BME280;48555;50.952;-0.120;2023-03-25T04:16:25;99712.91;;;11.05;70.87
61394;BME280;48555;50.952;-0.120;2023-03-25T04:18:50;99723.50;;;11.04;71.37
61394;BME280;48555;50.952;-0.120;2023-03-25T04:21:19;99719.22;;;11.03;71.25
61394;BME280;48555;50.952;-0.120;2023-03-25T04:23:44;99742.38;;;10.98;71.56
61394;BME280;48555;50.952;-0.120;2023-03-25T04:26:11;99732.19;;;10.95;71.60
61394;BME280;48555;50.952;-0.120;2023-03-25T04:28:37;99736.06;;;11.00;71.61
61394;BME280;48555;50.952;-0.120;2023-03-25T04:31:11;99739.22;;;11.04;71.50
61394;BME280;48555;50.952;-0.120;2023-03-25T04:33:43;99733.81;;;11.05;71.54
61394;BME280;48555;50.952;-0.120;2023-03-25T04:36:13;99738.66;;;11.10;71.62
61394;BME280;48555;50.952;-0.120;2023-03-25T04:38:39;99745.94;;;11.16;71.28
61394;BME280;48555;50.952;-0.120;2023-03-25T04:41:06;99745.69;;;11.19;70.98
61394;BME280;48555;50.952;-0.120;2023-03-25T04:43:31;99753.41;;;11.21;70.96
61394;BME280;48555;50.952;-0.120;2023-03-25T04:45:58;99759.84;;;11.17;71.14
61394;BME280;48555;50.952;-0.120;2023-03-25T04:48:29;99756.56;;;11.24;70.95
61394;BME280;48555;50.952;-0.120;2023-03-25T04:50:58;99748.28;;;11.29;70.80
61394;BME280;48555;50.952;-0.120;2023-03-25T04:53:25;99758.47;;;11.32;70.61
61394;BME280;48555;50.952;-0.120;2023-03-25T04:55:51;99760.13;;;11.33;70.48
61394;BME280;48555;50.952;-0.120;2023-03-25T04:58:16;99756.81;;;11.31;70.61
61394;BME280;48555;50.952;-0.120;2023-03-25T05:00:43;99755.16;;;11.40;70.37
61394;BME280;48555;50.952;-0.120;2023-03-25T05:03:10;99756.97;;;11.39;70.09
61394;BME280;48555;50.952;-0.120;2023-03-25T05:05:36;99761.66;;;11.35;70.16
61394;BME280;48555;50.952;-0.120;2023-03-25T05:08:02;99763.28;;;11.36;70.09
61394;BME280;48555;50.952;-0.120;2023-03-25T05:10:27;99777.75;;;11.41;69.70
61394;BME280;48555;50.952;-0.120;2023-03-25T05:13:04;99784.50;;;11.33;69.87
61394;BME280;48555;50.952;-0.120;2023-03-25T05:15:30;99782.44;;;11.37;69.96
61394;BME280;48555;50.952;-0.120;2023-03-25T05:17:59;99776.09;;;11.40;69.89
61394;BME280;48555;50.952;-0.120;2023-03-25T05:20:26;99775.41;;;11.37;70.57
61394;BME280;48555;50.952;-0.120;2023-03-25T05:22:52;99771.41;;;11.43;70.25
61394;BME280;48555;50.952;-0.120;2023-03-25T05:25:18;99771.84;;;11.39;70.41
61394;BME280;48555;50.952;-0.120;2023-03-25T05:27:46;99771.28;;;11.45;70.25
61394;BME280;48555;50.952;-0.120;2023-03-25T05:30:12;99758.59;;;11.50;70.35
61394;BME280;48555;50.952;-0.120;2023-03-25T05:32:37;99767.44;;;11.39;70.18
61394;BME280;48555;50.952;-0.120;2023-03-25T05:35:05;99781.88;;;11.43;69.90
61394;BME280;48555;50.952;-0.120;2023-03-25T05:37:31;99784.94;;;11.39;70.19
61394;BME280;48555;50.952;-0.120;2023-03-25T05:39:56;99785.59;;;11.41;70.11
61394;BME280;48555;50.952;-0.120;2023-03-25T05:42:22;99793.19;;;11.44;70.28
61394;BME280;48555;50.952;-0.120;2023-03-25T05:44:51;99805.84;;;11.29;70.78
61394;BME280;48555;50.952;-0.120;2023-03-25T05:47:22;99813.44;;;11.32;70.83
61394;BME280;48555;50.952;-0.120;2023-03-25T05:49:49;99814.00;;;11.35;70.97
61394;BME280;48555;50.952;-0.120;2023-03-25T05:52:16;99822.41;;;11.39;70.83
61394;BME280;48555;50.952;-0.120;2023-03-25T05:54:45;99807.94;;;11.45;71.22
61394;BME280;48555;50.952;-0.120;2023-03-25T05:57:14;99825.84;;;11.49;71.13
61394;BME280;48555;50.952;-0.120;2023-03-25T05:59:40;99823.91;;;11.51;70.97
61394;BME280;48555;50.952;-0.120;2023-03-25T06:02:07;99830.94;;;11.51;71.51
61394;BME280;48555;50.952;-0.120;2023-03-25T06:04:36;99827.91;;;11.55;71.36
61394;BME280;48555;50.952;-0.120;2023-03-25T06:07:13;99827.63;;;11.58;71.36
61394;BME280;48555;50.952;-0.120;2023-03-25T06:09:44;99822.53;;;11.67;70.97
61394;BME280;48555;50.952;-0.120;2023-03-25T06:12:15;99818.53;;;11.63;71.05
61394;BME280;48555;50.952;-0.120;2023-03-25T06:14:41;99822.25;;;11.60;71.06
61394;BME280;48555;50.952;-0.120;2023-03-25T06:17:14;99831.47;;;11.64;71.08
61394;BME280;48555;50.952;-0.120;2023-03-25T06:19:40;99823.78;;;11.63;71.11
61394;BME280;48555;50.952;-0.120;2023-03-25T06:22:07;99826.13;;;11.66;71.15
61394;BME280;48555;50.952;-0.120;2023-03-25T06:24:37;99825.56;;;11.72;70.83
61394;BME280;48555;50.952;-0.120;2023-03-25T06:27:05;99826.38;;;11.72;70.73
61394;BME280;48555;50.952;-0.120;2023-03-25T06:29:35;99844.97;;;11.79;70.76
61394;BME280;48555;50.952;-0.120;2023-03-25T06:32:02;99837.38;;;11.76;70.82
61394;BME280;48555;50.952;-0.120;2023-03-25T06:34:27;99848.03;;;11.74;71.20
61394;BME280;48555;50.952;-0.120;2023-03-25T06:36:53;99852.53;;;11.82;70.75
61394;BME280;48555;50.952;-0.120;2023-03-25T06:39:19;99852.88;;;11.89;70.41
61394;BME280;48555;50.952;-0.120;2023-03-25T06:41:45;99846.72;;;12.17;70.17
61394;BME280;48555;50.952;-0.120;2023-03-25T06:44:10;99850.72;;;12.59;69.66
61394;BME280;48555;50.952;-0.120;2023-03-25T06:46:36;99856.50;;;12.90;68.16
61394;BME280;48555;50.952;-0.120;2023-03-25T06:49:01;99858.41;;;13.25;67.33
61394;BME280;48555;50.952;-0.120;2023-03-25T06:51:27;99859.00;;;13.55;66.35
61394;BME280;48555;50.952;-0.120;2023-03-25T06:53:52;99869.06;;;13.59;65.28
61394;BME280;48555;50.952;-0.120;2023-03-25T06:56:18;99871.59;;;13.87;64.97
61394;BME280;48555;50.952;-0.120;2023-03-25T06:58:43;99869.44;;;14.08;64.12
61394;BME280;48555;50.952;-0.120;2023-03-25T07:01:09;99857.41;;;14.24;63.20
61394;BME280;48555;50.952;-0.120;2023-03-25T07:03:35;99870.91;;;14.55;62.56
61394;BME280;48555;50.952;-0.120;2023-03-25T07:06:01;99861.50;;;14.87;62.21
61394;BME280;48555;50.952;-0.120;2023-03-25T07:08:27;99866.28;;;14.83;61.49
61394;BME280;48555;50.952;-0.120;2023-03-25T07:10:52;99865.81;;;14.62;61.93
61394;BME280;48555;50.952;-0.120;2023-03-25T07:13:17;99865.00;;;14.35;62.22
61394;BME280;48555;50.952;-0.120;2023-03-25T07:15:43;99861.84;;;14.05;62.67
61394;BME280;48555;50.952;-0.120;2023-03-25T07:18:08;99878.34;;;13.90;63.11
61394;BME280;48555;50.952;-0.120;2023-03-25T07:20:33;99869.81;;;13.70;63.67
61394;BME280;48555;50.952;-0.120;2023-03-25T07:22:59;99867.50;;;13.49;64.13
61394;BME280;48555;50.952;-0.120;2023-03-25T07:25:24;99872.09;;;13.19;64.52
61394;BME280;48555;50.952;-0.120;2023-03-25T07:27:50;99869.22;;;12.94;65.42
61394;BME280;48555;50.952;-0.120;2023-03-25T07:30:15;99881.22;;;12.97;65.49
61394;BME280;48555;50.952;-0.120;2023-03-25T07:32:43;99887.69;;;12.93;65.64
61394;BME280;48555;50.952;-0.120;2023-03-25T07:35:09;99889.41;;;12.84;65.84
61394;BME280;48555;50.952;-0.120;2023-03-25T07:37:34;99879.38;;;12.80;66.23
61394;BME280;48555;50.952;-0.120;2023-03-25T07:40:00;99868.31;;;12.76;66.36
61394;BME280;48555;50.952;-0.120;2023-03-25T07:42:25;99859.22;;;12.70;66.58
61394;BME280;48555;50.952;-0.120;2023-03-25T07:44:50;99868.41;;;12.84;66.55
61394;BME280;48555;50.952;-0.120;2023-03-25T07:47:16;99872.16;;;12.82;66.30
61394;BME280;48555;50.952;-0.120;2023-03-25T07:49:41;99878.38;;;12.81;66.22
61394;BME280;48555;50.952;-0.120;2023-03-25T07:52:08;99895.53;;;12.75;66.15
61394;BME280;48555;50.952;-0.120;2023-03-25T07:54:33;99889.47;;;12.75;66.14
61394;BME280;48555;50.952;-0.120;2023-03-25T07:57:00;99900.19;;;12.81;66.25
61394;BME280;48555;50.952;-0.120;2023-03-25T07:59:25;99897.16;;;12.76;66.12
61394;BME280;48555;50.952;-0.120;2023-03-25T08:01:51;99903.56;;;13.01;65.73
61394;BME280;48555;50.952;-0.120;2023-03-25T08:04:16;99912.88;;;13.13;65.21
61394;BME280;48555;50.952;-0.120;2023-03-25T08:06:41;99912.53;;;13.26;64.83
61394;BME280;48555;50.952;-0.120;2023-03-25T08:09:07;99905.25;;;13.48;64.19
61394;BME280;48555;50.952;-0.120;2023-03-25T08:11:32;99909.81;;;13.63;64.03
61394;BME280;48555;50.952;-0.120;2023-03-25T08:13:58;99906.16;;;13.74;62.54
61394;BME280;48555;50.952;-0.120;2023-03-25T08:16:23;99912.94;;;14.03;62.59
61394;BME280;48555;50.952;-0.120;2023-03-25T08:18:48;99913.00;;;14.11;61.80
61394;BME280;48555;50.952;-0.120;2023-03-25T08:21:17;99920.44;;;14.16;61.66
61394;BME280;48555;50.952;-0.120;2023-03-25T08:23:52;99912.06;;;14.20;61.01
61394;BME280;48555;50.952;-0.120;2023-03-25T08:26:23;99915.31;;;14.14;60.01
61394;BME280;48555;50.952;-0.120;2023-03-25T08:28:49;99937.13;;;14.06;60.72
61394;BME280;48555;50.952;-0.120;2023-03-25T08:31:14;99922.63;;;14.02;60.68
61394;BME280;48555;50.952;-0.120;2023-03-25T08:33:39;99925.88;;;13.96;61.26
61394;BME280;48555;50.952;-0.120;2023-03-25T08:36:06;99935.88;;;13.93;61.12
61394;BME280;48555;50.952;-0.120;2023-03-25T08:38:34;99949.00;;;13.93;60.96
61394;BME280;48555;50.952;-0.120;2023-03-25T08:40:59;99950.00;;;13.92;60.66
61394;BME280;48555;50.952;-0.120;2023-03-25T08:43:25;99942.09;;;13.92;60.56
61394;BME280;48555;50.952;-0.120;2023-03-25T08:45:51;99944.06;;;13.90;60.39
61394;BME280;48555;50.952;-0.120;2023-03-25T08:48:16;99945.56;;;13.92;60.18
61394;BME280;48555;50.952;-0.120;2023-03-25T08:50:41;99948.88;;;13.94;60.02
61394;BME280;48555;50.952;-0.120;2023-03-25T08:53:07;99952.53;;;13.83;60.38
61394;BME280;48555;50.952;-0.120;2023-03-25T08:55:33;99948.50;;;13.89;60.02
61394;BME280;48555;50.952;-0.120;2023-03-25T08:58:05;99959.38;;;13.94;59.86
61394;BME280;48555;50.952;-0.120;2023-03-25T09:00:33;99958.69;;;14.10;59.70
61394;BME280;48555;50.952;-0.120;2023-03-25T09:02:59;99949.38;;;14.16;59.39
61394;BME280;48555;50.952;-0.120;2023-03-25T09:05:24;99947.16;;;14.29;59.31
61394;BME280;48555;50.952;-0.120;2023-03-25T09:07:50;99950.69;;;14.64;59.25
61394;BME280;48555;50.952;-0.120;2023-03-25T09:10:16;99959.47;;;14.72;58.03
61394;BME280;48555;50.952;-0.120;2023-03-25T09:12:43;99959.66;;;14.71;56.18
61394;BME280;48555;50.952;-0.120;2023-03-25T09:15:09;99965.81;;;14.88;56.40
61394;BME280;48555;50.952;-0.120;2023-03-25T09:17:36;99977.06;;;14.98;56.13
61394;BME280;48555;50.952;-0.120;2023-03-25T09:20:02;99978.56;;;15.01;55.48
61394;BME280;48555;50.952;-0.120;2023-03-25T09:22:28;99982.13;;;14.91;55.27
61394;BME280;48555;50.952;-0.120;2023-03-25T09:24:53;99983.34;;;14.79;55.77
61394;BME280;48555;50.952;-0.120;2023-03-25T09:27:18;99978.44;;;14.84;55.32
61394;BME280;48555;50.952;-0.120;2023-03-25T09:29:44;99986.53;;;14.83;55.52
61394;BME280;48555;50.952;-0.120;2023-03-25T09:32:10;99989.84;;;14.93;55.71
61394;BME280;48555;50.952;-0.120;2023-03-25T09:34:35;99984.94;;;14.98;54.74
61394;BME280;48555;50.952;-0.120;2023-03-25T09:37:02;100003.56;;;15.05;55.22
61394;BME280;48555;50.952;-0.120;2023-03-25T09:39:28;99994.41;;;15.17;55.44
61394;BME280;48555;50.952;-0.120;2023-03-25T09:44:30;100016.19;;;15.27;55.25
61394;BME280;48555;50.952;-0.120;2023-03-25T09:47:00;100019.16;;;15.24;54.51
61394;BME280;48555;50.952;-0.120;2023-03-25T09:49:41;100011.38;;;15.22;54.77
61394;BME280;48555;50.952;-0.120;2023-03-25T09:52:17;100009.38;;;15.16;55.03
61394;BME280;48555;50.952;-0.120;2023-03-25T09:54:53;100017.09;;;15.10;54.57
61394;BME280;48555;50.952;-0.120;2023-03-25T09:57:24;100022.00;;;15.05;54.63
61394;BME280;48555;50.952;-0.120;2023-03-25T09:59:53;100032.34;;;14.98;55.00
61394;BME280;48555;50.952;-0.120;2023-03-25T10:05:19;100040.03;;;14.91;54.88
61394;BME280;48555;50.952;-0.120;2023-03-25T10:07:40;100037.09;;;14.94;55.13
61394;BME280;48555;50.952;-0.120;2023-03-25T10:10:38;100038.53;;;14.89;55.14
61394;BME280;48555;50.952;-0.120;2023-03-25T10:13:15;100042.81;;;14.90;54.88
61394;BME280;48555;50.952;-0.120;2023-03-25T10:26:23;100058.19;;;15.03;56.14
61394;BME280;48555;50.952;-0.120;2023-03-25T10:28:57;100072.03;;;15.05;55.66
61394;BME280;48555;50.952;-0.120;2023-03-25T10:31:27;100061.00;;;15.01;55.22
61394;BME280;48555;50.952;-0.120;2023-03-25T10:34:00;100085.88;;;15.07;55.62
61394;BME280;48555;50.952;-0.120;2023-03-25T10:36:44;100075.34;;;15.07;55.63
61394;BME280;48555;50.952;-0.120;2023-03-25T10:39:19;100086.19;;;15.04;55.73
61394;BME280;48555;50.952;-0.120;2023-03-25T10:41:50;100102.50;;;15.07;55.66
61394;BME280;48555;50.952;-0.120;2023-03-25T10:44:20;100091.59;;;15.02;55.76
61394;BME280;48555;50.952;-0.120;2023-03-25T10:46:51;100103.31;;;15.08;55.70
61394;BME280;48555;50.952;-0.120;2023-03-25T10:49:24;100112.72;;;15.10;54.92
61394;BME280;48555;50.952;-0.120;2023-03-25T10:51:51;100095.72;;;15.05;54.81
61394;BME280;48555;50.952;-0.120;2023-03-25T10:54:20;100108.22;;;15.03;54.45
61394;BME280;48555;50.952;-0.120;2023-03-25T10:56:49;100105.88;;;14.99;54.16
61394;BME280;48555;50.952;-0.120;2023-03-25T11:01:42;100113.28;;;14.96;53.78
61394;BME280;48555;50.952;-0.120;2023-03-25T11:04:13;100110.81;;;14.94;53.41
61394;BME280;48555;50.952;-0.120;2023-03-25T11:06:44;100124.31;;;14.99;53.80
61394;BME280;48555;50.952;-0.120;2023-03-25T11:11:40;100123.81;;;14.96;53.72
61394;BME280;48555;50.952;-0.120;2023-03-25T11:14:06;100128.66;;;15.09;53.88
61394;BME280;48555;50.952;-0.120;2023-03-25T11:16:39;100114.22;;;15.13;53.71
61394;BME280;48555;50.952;-0.120;2023-03-25T11:19:09;100125.63;;;15.21;53.77
61394;BME280;48555;50.952;-0.120;2023-03-25T11:21:45;100132.44;;;15.32;54.35
61394;BME280;48555;50.952;-0.120;2023-03-25T11:24:14;100121.31;;;15.47;54.09
61394;BME280;48555;50.952;-0.120;2023-03-25T11:26:40;100128.28;;;15.56;53.67
61394;BME280;48555;50.952;-0.120;2023-03-25T11:29:11;100124.88;;;15.63;52.92
61394;BME280;48555;50.952;-0.120;2023-03-25T11:31:40;100129.47;;;15.61;53.15
61394;BME280;48555;50.952;-0.120;2023-03-25T11:39:41;100134.91;;;15.60;52.80
61394;BME280;48555;50.952;-0.120;2023-03-25T11:44:55;100145.81;;;15.65;52.78
61394;BME280;48555;50.952;-0.120;2023-03-25T11:47:32;100122.91;;;15.65;52.66
61394;BME280;48555;50.952;-0.120;2023-03-25T11:49:59;100138.72;;;15.65;52.43
61394;BME280;48555;50.952;-0.120;2023-03-25T11:52:41;100137.53;;;15.60;51.96
61394;BME280;48555;50.952;-0.120;2023-03-25T11:55:16;100139.53;;;15.66;51.50
61394;BME280;48555;50.952;-0.120;2023-03-25T11:57:43;100148.16;;;15.68;51.66
61394;BME280;48555;50.952;-0.120;2023-03-25T12:00:32;100134.97;;;15.68;51.63
61394;BME280;48555;50.952;-0.120;2023-03-25T12:03:14;100144.91;;;15.74;51.80
61394;BME280;48555;50.952;-0.120;2023-03-25T12:05:56;100141.44;;;15.74;51.51
61394;BME280;48555;50.952;-0.120;2023-03-25T12:08:22;100156.09;;;15.76;52.22
61394;BME280;48555;50.952;-0.120;2023-03-25T12:18:47;100133.84;;;16.21;53.58
61394;BME280;48555;50.952;-0.120;2023-03-25T12:21:35;100152.97;;;16.31;52.41
61394;BME280;48555;50.952;-0.120;2023-03-25T12:26:51;100169.09;;;16.20;52.83
61394;BME280;48555;50.952;-0.120;2023-03-25T12:29:49;100164.16;;;16.17;57.25
61394;BME280;48555;50.952;-0.120;2023-03-25T12:35:22;100155.91;;;16.20;60.03
61394;BME280;48555;50.952;-0.120;2023-03-25T12:43:10;100156.28;;;16.33;60.16
61394;BME280;48555;50.952;-0.120;2023-03-25T12:59:49;100167.09;;;16.14;55.65
61394;BME280;48555;50.952;-0.120;2023-03-25T13:05:18;100168.13;;;16.29;55.28
61394;BME280;48555;50.952;-0.120;2023-03-25T13:08:23;100163.72;;;16.38;54.43
61394;BME280;48555;50.952;-0.120;2023-03-25T13:13:39;100173.31;;;16.47;54.23
61394;BME280;48555;50.952;-0.120;2023-03-25T13:16:10;100184.72;;;16.56;53.58
61394;BME280;48555;50.952;-0.120;2023-03-25T13:18:43;100184.19;;;16.44;52.95
61394;BME280;48555;50.952;-0.120;2023-03-25T13:21:18;100195.56;;;16.37;52.20
61394;BME280;48555;50.952;-0.120;2023-03-25T13:23:51;100193.06;;;16.35;51.91
61394;BME280;48555;50.952;-0.120;2023-03-25T13:26:22;100191.88;;;16.29;52.07
61394;BME280;48555;50.952;-0.120;2023-03-25T13:31:41;100191.59;;;16.32;52.59
61394;BME280;48555;50.952;-0.120;2023-03-25T13:39:50;100193.19;;;16.25;58.63
61394;BME280;48555;50.952;-0.120;2023-03-25T13:42:18;100209.72;;;16.27;58.42
61394;BME280;48555;50.952;-0.120;2023-03-25T13:44:46;100197.16;;;16.21;58.79
61394;BME280;48555;50.952;-0.120;2023-03-25T13:47:19;100184.63;;;16.23;58.90
61394;BME280;48555;50.952;-0.120;2023-03-25T13:49:54;100191.22;;;16.19;59.17
61394;BME280;48555;50.952;-0.120;2023-03-25T13:52:25;100192.00;;;16.11;59.21
61394;BME280;48555;50.952;-0.120;2023-03-25T13:55:00;100202.53;;;16.11;59.26
61394;BME280;48555;50.952;-0.120;2023-03-25T14:11:18;100177.72;;;15.80;60.30
61394;BME280;48555;50.952;-0.120;2023-03-25T14:13:58;100168.31;;;15.77;60.50
61394;BME280;48555;50.952;-0.120;2023-03-25T14:16:29;100175.53;;;15.75;60.42
61394;BME280;48555;50.952;-0.120;2023-03-25T14:19:01;100189.84;;;15.73;60.91
61394;BME280;48555;50.952;-0.120;2023-03-25T14:21:31;100186.38;;;15.72;60.62
61394;BME280;48555;50.952;-0.120;2023-03-25T14:24:26;100189.03;;;15.72;61.02
61394;BME280;48555;50.952;-0.120;2023-03-25T14:26:58;100187.81;;;15.66;61.30
61394;BME280;48555;50.952;-0.120;2023-03-25T14:29:33;100196.19;;;15.62;61.99
61394;BME280;48555;50.952;-0.120;2023-03-25T14:32:25;100207.00;;;15.51;62.44
61394;BME280;48555;50.952;-0.120;2023-03-25T14:34:51;100209.63;;;15.51;62.43
61394;BME280;48555;50.952;-0.120;2023-03-25T14:37:22;100216.28;;;15.37;62.21
61394;BME280;48555;50.952;-0.120;2023-03-25T14:39:51;100216.34;;;15.45;61.90
61394;BME280;48555;50.952;-0.120;2023-03-25T14:42:40;100215.66;;;15.43;61.90
61394;BME280;48555;50.952;-0.120;2023-03-25T14:45:38;100215.66;;;15.43;61.96
61394;BME280;48555;50.952;-0.120;2023-03-25T14:48:23;100219.66;;;15.47;61.67
61394;BME280;48555;50.952;-0.120;2023-03-25T14:51:04;100233.19;;;15.52;62.00
61394;BME280;48555;50.952;-0.120;2023-03-25T14:53:30;100235.50;;;15.55;61.38
61394;BME280;48555;50.952;-0.120;2023-03-25T14:55:59;100243.72;;;15.52;60.93
61394;BME280;48555;50.952;-0.120;2023-03-25T14:58:27;100244.84;;;15.50;61.24
61394;BME280;48555;50.952;-0.120;2023-03-25T15:01:05;100239.53;;;15.41;61.02
61394;BME280;48555;50.952;-0.120;2023-03-25T15:03:35;100245.47;;;15.43;60.37
61394;BME280;48555;50.952;-0.120;2023-03-25T15:06:02;100251.63;;;15.52;60.81